M Y Suncoco — SY7908 — position and weather

sailwx.info

Track history (hours):
 
Tides and Currents Weather Stations Pressure Air Temp Water Temp Dewpoint Dewpoint Depression Visibility Wind Speed Wind Dir Waves Ship Positions

M Y Suncoco

Last reported at 2017-Jul-17 10:02 UTC. Time now 2017-Jul-21 19:00 UTC.
Position N 37°21' E 023°23'.

Length 32 m; draft 2.8 m.

Type: Other ship. MMSI: 239112700.

Date/timePositionNaut miles runAvg speedWind from/ knotsBaromVisibWave heightAir tempDewpointWater temp
2017-Jul-17 10:02N 37°21' E 023°23'9 0.5
2017-Jul-16 13:37N 37°28' E 023°30'110.9
2017-Jul-16 13:30N 37°29' E 023°29'7 0.3
2017-Jul-15 16:14N 37°36' E 023°27'210.8
2017-Jul-15 16:00N 37°38' E 023°28'510.5
2017-Jul-15 15:30N 37°42' E 023°33'510.5
2017-Jul-15 15:00N 37°47' E 023°36'9 9.3
2017-Jul-15 14:00N 37°55' E 023°42'0 0.0
2017-Jul-15 13:30N 37°55' E 023°42'0 0.0
2017-Jul-15 13:00N 37°55' E 023°42'0 0.0
2017-Jul-15 12:30N 37°55' E 023°42'0 0.0
2017-Jul-15 12:00N 37°55' E 023°42'0 0.0
2017-Jul-15 11:30N 37°55' E 023°42'0 0.0
2017-Jul-15 11:00N 37°55' E 023°42'0 0.0
2017-Jul-15 10:30N 37°55' E 023°42'0 0.0
2017-Jul-15 10:00N 37°55' E 023°42'0 0.0
2017-Jul-15 09:30N 37°55' E 023°42'0 0.0
2017-Jul-15 09:00N 37°55' E 023°42'0 0.0
2017-Jul-15 08:30N 37°55' E 023°42'0 0.0
2017-Jul-15 08:00N 37°55' E 023°42'0 0.0
2017-Jul-15 07:30N 37°55' E 023°42'  
2017-Jul-11 02:16N 37°55' E 023°42'0 0.2
2017-Jul-11 02:00N 37°55' E 023°42'3 6.5
2017-Jul-11 01:30N 37°52' E 023°43'510.8
2017-Jul-11 01:00N 37°47' E 023°46'4810.4
2017-Jul-10 20:24N 37°32' E 024°44'411.0
2017-Jul-10 20:00N 37°32' E 024°50'1010.9
2017-Jul-10 19:03N 37°30' E 025°02'011.0
2017-Jul-10 19:00N 37°30' E 025°03'611.2
2017-Jul-10 18:30N 37°28' E 025°10'510.8
2017-Jul-10 18:00N 37°26' E 025°16'4 7.5
2017-Jul-10 17:30N 37°25' E 025°20'0 0.0
2017-Jul-10 17:00N 37°25' E 025°20'0 0.0
2017-Jul-10 16:30N 37°25' E 025°20'0 0.0
2017-Jul-10 16:00N 37°25' E 025°20'0 0.1
2017-Jul-10 15:30N 37°25' E 025°20'3 5.6
2017-Jul-10 15:00N 37°23' E 025°23'510.8
2017-Jul-10 14:30N 37°18' E 025°21'510.4
2017-Jul-10 14:00N 37°14' E 025°18'510.4
2017-Jul-10 13:30N 37°09' E 025°15'1 1.8
2017-Jul-10 13:00N 37°09' E 025°14'0 0.0
2017-Jul-10 12:30N 37°09' E 025°14'0 0.0
2017-Jul-10 12:00N 37°09' E 025°14'0 0.0
2017-Jul-10 11:30N 37°09' E 025°14'0 0.0
2017-Jul-10 11:00N 37°09' E 025°14'0 0.0
2017-Jul-10 10:30N 37°09' E 025°14'0 0.0
2017-Jul-10 10:00N 37°09' E 025°14'0 0.0
2017-Jul-10 09:30N 37°09' E 025°14'0 0.0
2017-Jul-10 09:00N 37°09' E 025°14'0 0.0
2017-Jul-10 08:30N 37°09' E 025°14'0 0.0
2017-Jul-10 08:00N 37°09' E 025°14'0 0.6
2017-Jul-10 07:30N 37°08' E 025°14'0 0.0
2017-Jul-10 07:00N 37°08' E 025°14'0 0.0
2017-Jul-10 06:30N 37°08' E 025°14'0 0.0
2017-Jul-10 06:00N 37°08' E 025°14'0 0.0
2017-Jul-10 05:30N 37°08' E 025°14'0 0.0
2017-Jul-10 05:00N 37°08' E 025°14'0 0.0
2017-Jul-10 04:30N 37°08' E 025°14'0 0.0
2017-Jul-10 04:00N 37°08' E 025°14'0 0.0
2017-Jul-10 03:30N 37°08' E 025°14'0 0.0
2017-Jul-10 03:00N 37°08' E 025°14'0 0.0
2017-Jul-10 02:30N 37°08' E 025°14'0 0.0
2017-Jul-10 02:00N 37°08' E 025°14'0 0.0
2017-Jul-10 01:30N 37°08' E 025°14'0 0.0
2017-Jul-10 01:00N 37°08' E 025°14'0 0.1
2017-Jul-10 00:30N 37°09' E 025°14'0 0.0
2017-Jul-10 00:00N 37°09' E 025°14'0 0.0
2017-Jul-09 23:30N 37°08' E 025°14'0 0.0
2017-Jul-09 23:00N 37°08' E 025°14'0 0.0
2017-Jul-09 22:30N 37°08' E 025°14'0 0.0
2017-Jul-09 22:00N 37°09' E 025°14'0 0.0
2017-Jul-09 21:30N 37°09' E 025°14'0 0.0
2017-Jul-09 21:00N 37°09' E 025°14'0 0.0
2017-Jul-09 20:30N 37°09' E 025°14'0 0.0
2017-Jul-09 20:00N 37°09' E 025°14'0 0.0
2017-Jul-09 19:30N 37°09' E 025°14'0 0.0
2017-Jul-09 19:00N 37°09' E 025°14'0 0.0
2017-Jul-09 18:30N 37°09' E 025°14'0 0.4
2017-Jul-09 18:00N 37°08' E 025°14'4 7.9
2017-Jul-09 17:30N 37°08' E 025°19'4 7.0
2017-Jul-09 17:00N 37°05' E 025°20'0 0.1
2017-Jul-09 16:30N 37°05' E 025°20'0 0.0
2017-Jul-09 16:00N 37°05' E 025°20'0 0.0
2017-Jul-09 15:30N 37°05' E 025°20'0 0.0
2017-Jul-09 15:00N 37°05' E 025°20'0 0.0
2017-Jul-09 14:30N 37°05' E 025°20'0 0.0
2017-Jul-09 14:00N 37°05' E 025°20'0 0.0
2017-Jul-09 13:30N 37°05' E 025°20'0 0.0
2017-Jul-09 13:00N 37°05' E 025°20'0 0.0
2017-Jul-09 12:30N 37°05' E 025°20'0 0.0
2017-Jul-09 12:00N 37°05' E 025°20'0 0.0
2017-Jul-09 11:30N 37°05' E 025°20'0 0.0
2017-Jul-09 11:00N 37°05' E 025°20'0 0.0
2017-Jul-09 10:30N 37°05' E 025°20'0 1.0
2017-Jul-09 10:00N 37°05' E 025°20'611.0
2017-Jul-09 09:30N 37°10' E 025°20'510.9
2017-Jul-09 09:00N 37°16' E 025°21'611.8
2017-Jul-09 08:30N 37°21' E 025°20'3 6.4
2017-Jul-09 08:00N 37°25' E 025°20'0 0.1
2017-Jul-09 07:30N 37°25' E 025°20'0 0.0
2017-Jul-09 07:00N 37°25' E 025°20'0 0.0
2017-Jul-09 06:30N 37°25' E 025°20'0 0.0
2017-Jul-09 06:00N 37°25' E 025°20'0 0.0
2017-Jul-09 05:30N 37°25' E 025°20'0 0.0
2017-Jul-09 05:00N 37°25' E 025°20'0 0.0
2017-Jul-09 04:30N 37°25' E 025°20'0 0.0
2017-Jul-09 04:00N 37°25' E 025°20'0 0.0
2017-Jul-09 03:30N 37°25' E 025°20'0 0.0
2017-Jul-09 03:00N 37°25' E 025°20'0 0.0
2017-Jul-09 02:30N 37°25' E 025°20'0 0.0
2017-Jul-09 02:00N 37°25' E 025°20'0 0.0
2017-Jul-09 01:30N 37°25' E 025°20'0 0.0
2017-Jul-09 01:00N 37°25' E 025°20'0 0.1
2017-Jul-09 00:30N 37°25' E 025°20'0 0.0
2017-Jul-09 00:00N 37°25' E 025°20'0 0.0
2017-Jul-08 23:30N 37°25' E 025°20'0 0.0
2017-Jul-08 23:00N 37°25' E 025°20'0 0.0
2017-Jul-08 22:30N 37°25' E 025°20'0 0.0
2017-Jul-08 22:00N 37°25' E 025°20'0 0.0
2017-Jul-08 21:30N 37°25' E 025°20'0 0.0
2017-Jul-08 21:00N 37°25' E 025°20'0 0.0
2017-Jul-08 20:30N 37°25' E 025°20'0 0.0
2017-Jul-08 20:00N 37°25' E 025°20'0 0.0
2017-Jul-08 19:30N 37°25' E 025°20'0 0.0
2017-Jul-08 19:00N 37°25' E 025°20'0 0.0
2017-Jul-08 18:23N 37°25' E 025°20'0 0.0
2017-Jul-08 18:00N 37°25' E 025°20'0 0.0
2017-Jul-08 17:30N 37°25' E 025°20'0 0.0
2017-Jul-08 17:00N 37°25' E 025°20'0 0.0
2017-Jul-08 16:30N 37°25' E 025°20'0 0.0
2017-Jul-08 16:00N 37°25' E 025°20'0 0.0
2017-Jul-08 15:30N 37°25' E 025°20'0 0.0
2017-Jul-08 15:00N 37°25' E 025°20'0 0.0
2017-Jul-08 14:00N 37°25' E 025°20'0 0.0
2017-Jul-08 13:30N 37°25' E 025°20'0 0.0
2017-Jul-08 13:00N 37°25' E 025°20'0 0.0
2017-Jul-08 12:30N 37°25' E 025°20'0 0.0
2017-Jul-08 12:00N 37°25' E 025°20'0 0.0
2017-Jul-08 11:30N 37°25' E 025°20'0 0.0
2017-Jul-08 11:00N 37°25' E 025°20'0 0.0
2017-Jul-08 10:30N 37°25' E 025°20'0 0.0
2017-Jul-08 10:00N 37°25' E 025°20'0 0.0
2017-Jul-08 09:30N 37°25' E 025°20'0 0.0
2017-Jul-08 09:00N 37°25' E 025°20'0 0.0
2017-Jul-08 08:30N 37°25' E 025°20'0 0.0
2017-Jul-08 08:00N 37°25' E 025°20'0 0.0
2017-Jul-08 07:30N 37°25' E 025°20'0 0.0
2017-Jul-08 07:00N 37°25' E 025°20'0 0.0
2017-Jul-08 06:30N 37°25' E 025°20'0 0.0
2017-Jul-08 06:00N 37°25' E 025°20'0 0.0
2017-Jul-08 05:30N 37°25' E 025°20'0 0.0
2017-Jul-08 05:00N 37°25' E 025°20'0 0.0
2017-Jul-08 04:30N 37°25' E 025°20'0 0.0
2017-Jul-08 04:00N 37°25' E 025°20'0 0.0
2017-Jul-08 03:30N 37°25' E 025°20'0 0.0
2017-Jul-08 03:00N 37°25' E 025°20'0 0.0
2017-Jul-08 02:30N 37°25' E 025°20'0 0.0
2017-Jul-08 02:00N 37°25' E 025°20'0 0.0
2017-Jul-08 01:30N 37°25' E 025°20'0 0.0
2017-Jul-08 01:00N 37°25' E 025°20'0 0.0
2017-Jul-08 00:30N 37°25' E 025°20'0 0.0
2017-Jul-08 00:00N 37°25' E 025°20'0 0.1
2017-Jul-07 23:30N 37°25' E 025°20'4 8.3
2017-Jul-07 23:00N 37°20' E 025°21'510.6
2017-Jul-07 22:30N 37°15' E 025°20'510.4
2017-Jul-07 22:00N 37°10' E 025°19'510.6
2017-Jul-07 21:30N 37°05' E 025°18'510.6
2017-Jul-07 21:00N 37°00' E 025°15'  
Track history (hours):
 
Tides and Currents Weather Stations Pressure Air Temp Water Temp Dewpoint Dewpoint Depression Visibility Wind Speed Wind Dir Waves Ship Positions

M Y Suncoco

Last reported at 2017-Jul-17 10:02 UTC. Time now 2017-Jul-21 19:00 UTC.
Position N 37°21' E 023°23'.

Length 32 m; draft 2.8 m.

Type: Other ship. MMSI: 239112700.

Date/timePositionNaut miles runAvg speedWind from/ knotsBaromVisibWave heightAir tempDewpointWater temp
2017-Jul-17 10:02N 37°21' E 023°23'9 0.5
2017-Jul-16 13:37N 37°28' E 023°30'110.9
2017-Jul-16 13:30N 37°29' E 023°29'7 0.3
2017-Jul-15 16:14N 37°36' E 023°27'210.8
2017-Jul-15 16:00N 37°38' E 023°28'510.5
2017-Jul-15 15:30N 37°42' E 023°33'510.5
2017-Jul-15 15:00N 37°47' E 023°36'9 9.3
2017-Jul-15 14:00N 37°55' E 023°42'0 0.0
2017-Jul-15 13:30N 37°55' E 023°42'0 0.0
2017-Jul-15 13:00N 37°55' E 023°42'0 0.0
2017-Jul-15 12:30N 37°55' E 023°42'0 0.0
2017-Jul-15 12:00N 37°55' E 023°42'0 0.0
2017-Jul-15 11:30N 37°55' E 023°42'0 0.0
2017-Jul-15 11:00N 37°55' E 023°42'0 0.0
2017-Jul-15 10:30N 37°55' E 023°42'0 0.0
2017-Jul-15 10:00N 37°55' E 023°42'0 0.0
2017-Jul-15 09:30N 37°55' E 023°42'0 0.0
2017-Jul-15 09:00N 37°55' E 023°42'0 0.0
2017-Jul-15 08:30N 37°55' E 023°42'0 0.0
2017-Jul-15 08:00N 37°55' E 023°42'0 0.0
2017-Jul-15 07:30N 37°55' E 023°42'  
2017-Jul-11 02:16N 37°55' E 023°42'0 0.2
2017-Jul-11 02:00N 37°55' E 023°42'3 6.5
2017-Jul-11 01:30N 37°52' E 023°43'510.8
2017-Jul-11 01:00N 37°47' E 023°46'4810.4
2017-Jul-10 20:24N 37°32' E 024°44'411.0
2017-Jul-10 20:00N 37°32' E 024°50'1010.9
2017-Jul-10 19:03N 37°30' E 025°02'011.0
2017-Jul-10 19:00N 37°30' E 025°03'611.2
2017-Jul-10 18:30N 37°28' E 025°10'510.8
2017-Jul-10 18:00N 37°26' E 025°16'4 7.5
2017-Jul-10 17:30N 37°25' E 025°20'0 0.0
2017-Jul-10 17:00N 37°25' E 025°20'0 0.0
2017-Jul-10 16:30N 37°25' E 025°20'0 0.0
2017-Jul-10 16:00N 37°25' E 025°20'0 0.1
2017-Jul-10 15:30N 37°25' E 025°20'3 5.6
2017-Jul-10 15:00N 37°23' E 025°23'510.8
2017-Jul-10 14:30N 37°18' E 025°21'510.4
2017-Jul-10 14:00N 37°14' E 025°18'510.4
2017-Jul-10 13:30N 37°09' E 025°15'1 1.8
2017-Jul-10 13:00N 37°09' E 025°14'0 0.0
2017-Jul-10 12:30N 37°09' E 025°14'0 0.0
2017-Jul-10 12:00N 37°09' E 025°14'0 0.0
2017-Jul-10 11:30N 37°09' E 025°14'0 0.0
2017-Jul-10 11:00N 37°09' E 025°14'0 0.0
2017-Jul-10 10:30N 37°09' E 025°14'0 0.0
2017-Jul-10 10:00N 37°09' E 025°14'0 0.0
2017-Jul-10 09:30N 37°09' E 025°14'0 0.0
2017-Jul-10 09:00N 37°09' E 025°14'0 0.0
2017-Jul-10 08:30N 37°09' E 025°14'0 0.0
2017-Jul-10 08:00N 37°09' E 025°14'0 0.6
2017-Jul-10 07:30N 37°08' E 025°14'0 0.0
2017-Jul-10 07:00N 37°08' E 025°14'0 0.0
2017-Jul-10 06:30N 37°08' E 025°14'0 0.0
2017-Jul-10 06:00N 37°08' E 025°14'0 0.0
2017-Jul-10 05:30N 37°08' E 025°14'0 0.0
2017-Jul-10 05:00N 37°08' E 025°14'0 0.0
2017-Jul-10 04:30N 37°08' E 025°14'0 0.0
2017-Jul-10 04:00N 37°08' E 025°14'0 0.0
2017-Jul-10 03:30N 37°08' E 025°14'0 0.0
2017-Jul-10 03:00N 37°08' E 025°14'0 0.0
2017-Jul-10 02:30N 37°08' E 025°14'0 0.0
2017-Jul-10 02:00N 37°08' E 025°14'0 0.0
2017-Jul-10 01:30N 37°08' E 025°14'0 0.0
2017-Jul-10 01:00N 37°08' E 025°14'0 0.1
2017-Jul-10 00:30N 37°09' E 025°14'0 0.0
2017-Jul-10 00:00N 37°09' E 025°14'0 0.0
2017-Jul-09 23:30N 37°08' E 025°14'0 0.0
2017-Jul-09 23:00N 37°08' E 025°14'0 0.0
2017-Jul-09 22:30N 37°08' E 025°14'0 0.0
2017-Jul-09 22:00N 37°09' E 025°14'0 0.0
2017-Jul-09 21:30N 37°09' E 025°14'0 0.0
2017-Jul-09 21:00N 37°09' E 025°14'0 0.0
2017-Jul-09 20:30N 37°09' E 025°14'0 0.0
2017-Jul-09 20:00N 37°09' E 025°14'0 0.0
2017-Jul-09 19:30N 37°09' E 025°14'0 0.0
2017-Jul-09 19:00N 37°09' E 025°14'0 0.0
2017-Jul-09 18:30N 37°09' E 025°14'0 0.4
2017-Jul-09 18:00N 37°08' E 025°14'4 7.9
2017-Jul-09 17:30N 37°08' E 025°19'4 7.0
2017-Jul-09 17:00N 37°05' E 025°20'0 0.1
2017-Jul-09 16:30N 37°05' E 025°20'0 0.0
2017-Jul-09 16:00N 37°05' E 025°20'0 0.0
2017-Jul-09 15:30N 37°05' E 025°20'0 0.0
2017-Jul-09 15:00N 37°05' E 025°20'0 0.0
2017-Jul-09 14:30N 37°05' E 025°20'0 0.0
2017-Jul-09 14:00N 37°05' E 025°20'0 0.0
2017-Jul-09 13:30N 37°05' E 025°20'0 0.0
2017-Jul-09 13:00N 37°05' E 025°20'0 0.0
2017-Jul-09 12:30N 37°05' E 025°20'0 0.0
2017-Jul-09 12:00N 37°05' E 025°20'0 0.0
2017-Jul-09 11:30N 37°05' E 025°20'0 0.0
2017-Jul-09 11:00N 37°05' E 025°20'0 0.0
2017-Jul-09 10:30N 37°05' E 025°20'0 1.0
2017-Jul-09 10:00N 37°05' E 025°20'611.0
2017-Jul-09 09:30N 37°10' E 025°20'510.9
2017-Jul-09 09:00N 37°16' E 025°21'611.8
2017-Jul-09 08:30N 37°21' E 025°20'3 6.4
2017-Jul-09 08:00N 37°25' E 025°20'0 0.1
2017-Jul-09 07:30N 37°25' E 025°20'0 0.0
2017-Jul-09 07:00N 37°25' E 025°20'0 0.0
2017-Jul-09 06:30N 37°25' E 025°20'0 0.0
2017-Jul-09 06:00N 37°25' E 025°20'0 0.0
2017-Jul-09 05:30N 37°25' E 025°20'0 0.0
2017-Jul-09 05:00N 37°25' E 025°20'0 0.0
2017-Jul-09 04:30N 37°25' E 025°20'0 0.0
2017-Jul-09 04:00N 37°25' E 025°20'0 0.0
2017-Jul-09 03:30N 37°25' E 025°20'0 0.0
2017-Jul-09 03:00N 37°25' E 025°20'0 0.0
2017-Jul-09 02:30N 37°25' E 025°20'0 0.0
2017-Jul-09 02:00N 37°25' E 025°20'0 0.0
2017-Jul-09 01:30N 37°25' E 025°20'0 0.0
2017-Jul-09 01:00N 37°25' E 025°20'0 0.1
2017-Jul-09 00:30N 37°25' E 025°20'0 0.0
2017-Jul-09 00:00N 37°25' E 025°20'0 0.0
2017-Jul-08 23:30N 37°25' E 025°20'0 0.0
2017-Jul-08 23:00N 37°25' E 025°20'0 0.0
2017-Jul-08 22:30N 37°25' E 025°20'0 0.0
2017-Jul-08 22:00N 37°25' E 025°20'0 0.0
2017-Jul-08 21:30N 37°25' E 025°20'0 0.0
2017-Jul-08 21:00N 37°25' E 025°20'0 0.0
2017-Jul-08 20:30N 37°25' E 025°20'0 0.0
2017-Jul-08 20:00N 37°25' E 025°20'0 0.0
2017-Jul-08 19:30N 37°25' E 025°20'0 0.0
2017-Jul-08 19:00N 37°25' E 025°20'0 0.0
2017-Jul-08 18:23N 37°25' E 025°20'0 0.0
2017-Jul-08 18:00N 37°25' E 025°20'0 0.0
2017-Jul-08 17:30N 37°25' E 025°20'0 0.0
2017-Jul-08 17:00N 37°25' E 025°20'0 0.0
2017-Jul-08 16:30N 37°25' E 025°20'0 0.0
2017-Jul-08 16:00N 37°25' E 025°20'0 0.0
2017-Jul-08 15:30N 37°25' E 025°20'0 0.0
2017-Jul-08 15:00N 37°25' E 025°20'0 0.0
2017-Jul-08 14:00N 37°25' E 025°20'0 0.0
2017-Jul-08 13:30N 37°25' E 025°20'0 0.0
2017-Jul-08 13:00N 37°25' E 025°20'0 0.0
2017-Jul-08 12:30N 37°25' E 025°20'0 0.0
2017-Jul-08 12:00N 37°25' E 025°20'0 0.0
2017-Jul-08 11:30N 37°25' E 025°20'0 0.0
2017-Jul-08 11:00N 37°25' E 025°20'0 0.0
2017-Jul-08 10:30N 37°25' E 025°20'0 0.0
2017-Jul-08 10:00N 37°25' E 025°20'0 0.0
2017-Jul-08 09:30N 37°25' E 025°20'0 0.0
2017-Jul-08 09:00N 37°25' E 025°20'0 0.0
2017-Jul-08 08:30N 37°25' E 025°20'0 0.0
2017-Jul-08 08:00N 37°25' E 025°20'0 0.0
2017-Jul-08 07:30N 37°25' E 025°20'0 0.0
2017-Jul-08 07:00N 37°25' E 025°20'0 0.0
2017-Jul-08 06:30N 37°25' E 025°20'0 0.0
2017-Jul-08 06:00N 37°25' E 025°20'0 0.0
2017-Jul-08 05:30N 37°25' E 025°20'0 0.0
2017-Jul-08 05:00N 37°25' E 025°20'0 0.0
2017-Jul-08 04:30N 37°25' E 025°20'0 0.0
2017-Jul-08 04:00N 37°25' E 025°20'0 0.0
2017-Jul-08 03:30N 37°25' E 025°20'0 0.0
2017-Jul-08 03:00N 37°25' E 025°20'0 0.0
2017-Jul-08 02:30N 37°25' E 025°20'0 0.0
2017-Jul-08 02:00N 37°25' E 025°20'0 0.0
2017-Jul-08 01:30N 37°25' E 025°20'0 0.0
2017-Jul-08 01:00N 37°25' E 025°20'0 0.0
2017-Jul-08 00:30N 37°25' E 025°20'0 0.0
2017-Jul-08 00:00N 37°25' E 025°20'0 0.1
2017-Jul-07 23:30N 37°25' E 025°20'4 8.3
2017-Jul-07 23:00N 37°20' E 025°21'510.6
2017-Jul-07 22:30N 37°15' E 025°20'510.4
2017-Jul-07 22:00N 37°10' E 025°19'510.6
2017-Jul-07 21:30N 37°05' E 025°18'510.6
2017-Jul-07 21:00N 37°00' E 025°15'  

Dump ship's entire track history